Time;durP1;ratioP1;P1;durP2;ratioP2;P2;SDS_P1;SDS_P2;PMS_P1;PMS_P2;Temp;Humidity;BMP_temperature;BMP_pressure;BME280_temperature;BME280_humidity;BME280_pressure;Samples;Min_cycle;Max_cycle;Signal;HPM_P1;HPM_P2
2022/03/06 00:01:18;;;;;;;27.33;24.40;;;;;;;-141.02;100.00;55844.97;5134674;27;20284;-72
2022/03/06 00:03:47;;;;;;;18.17;16.77;;;;;;;-141.02;100.00;55844.97;5134566;27;20257;-73
2022/03/06 00:06:14;;;;;;;14.77;13.87;;;;;;;-141.02;100.00;55844.97;5134584;27;20199;-73
2022/03/06 00:08:41;;;;;;;22.43;20.33;;;;;;;-141.02;100.00;55844.97;5134484;27;20192;-72
2022/03/06 00:11:09;;;;;;;17.10;15.80;;;;;;;-141.02;100.00;55844.97;5134799;27;20257;-73
2022/03/06 00:13:36;;;;;;;14.47;13.70;;;;;;;-141.02;100.00;55844.97;5134672;27;20203;-73
2022/03/06 00:16:03;;;;;;;15.73;14.70;;;;;;;-141.02;100.00;55844.97;5134646;27;20253;-73
2022/03/06 00:18:30;;;;;;;15.90;14.87;;;;;;;-141.02;100.00;55844.97;5134284;27;20260;-73
2022/03/06 00:20:59;;;;;;;18.10;16.67;;;;;;;-141.02;100.00;55844.97;5134516;27;20259;-73
2022/03/06 00:23:26;;;;;;;15.73;14.63;;;;;;;-141.02;100.00;55844.97;5134206;27;20576;-73
2022/03/06 00:25:53;;;;;;;15.43;14.60;;;;;;;-141.02;100.00;55844.97;5134522;27;20654;-73
2022/03/06 00:28:20;;;;;;;13.13;12.53;;;;;;;-141.02;100.00;55844.97;5134477;27;20223;-74
2022/03/06 00:30:48;;;;;;;15.40;14.50;;;;;;;-141.02;100.00;55844.97;5134083;27;20232;-73
2022/03/06 00:33:15;;;;;;;12.63;12.20;;;;;;;-141.02;100.00;55844.97;5134015;27;20222;-74
2022/03/06 00:35:42;;;;;;;15.60;14.70;;;;;;;-141.02;100.00;55844.97;5134013;27;20287;-74
2022/03/06 00:38:10;;;;;;;12.17;11.77;;;;;;;-141.02;100.00;55844.97;5133710;27;20271;-74
2022/03/06 00:40:37;;;;;;;12.07;11.67;;;;;;;-141.02;100.00;55844.97;5133932;27;20246;-74
2022/03/06 00:43:04;;;;;;;14.50;13.50;;;;;;;-141.02;100.00;55844.97;5133826;27;20196;-74
2022/03/06 00:45:31;;;;;;;15.50;14.33;;;;;;;-141.02;100.00;55844.97;5134662;27;20275;-73
2022/03/06 00:47:58;;;;;;;18.60;17.17;;;;;;;-141.02;100.00;55844.97;5133559;27;20197;-72
2022/03/06 00:50:25;;;;;;;13.50;12.87;;;;;;;-141.02;100.00;55844.97;5133807;27;20189;-73
2022/03/06 00:52:53;;;;;;;14.87;13.80;;;;;;;-141.02;100.00;55844.97;5133954;27;20197;-74
2022/03/06 00:55:22;;;;;;;12.93;12.43;;;;;;;-141.02;100.00;55844.97;5133608;27;20241;-73
2022/03/06 00:57:49;;;;;;;15.57;14.60;;;;;;;-141.02;100.00;55844.97;5133512;27;20384;-73
2022/03/06 01:00:16;;;;;;;12.60;12.03;;;;;;;-141.02;100.00;55844.97;5133850;27;20215;-73
2022/03/06 01:02:43;;;;;;;14.87;13.97;;;;;;;-141.02;100.00;55844.97;5134623;27;20192;-73
2022/03/06 01:05:11;;;;;;;14.90;14.20;;;;;;;-141.02;100.00;55844.97;5133462;27;20279;-72
2022/03/06 01:07:38;;;;;;;18.67;17.07;;;;;;;-141.02;100.00;55844.97;5133770;27;20275;-73
2022/03/06 01:10:05;;;;;;;15.83;14.77;;;;;;;-141.02;100.00;55844.97;5133712;27;20276;-73
2022/03/06 01:12:34;;;;;;;14.40;13.53;;;;;;;-141.02;100.00;55844.97;5133363;27;20583;-73
2022/03/06 01:15:01;;;;;;;32.33;30.17;;;;;;;-141.02;100.00;55844.97;5133378;27;20249;-73
2022/03/06 01:17:28;;;;;;;20.30;18.73;;;;;;;-141.02;100.00;55844.97;5133554;27;20203;-72
2022/03/06 01:19:55;;;;;;;16.67;15.47;;;;;;;-141.02;100.00;55844.97;5133085;27;20284;-73
2022/03/06 01:22:22;;;;;;;15.37;14.47;;;;;;;-141.02;100.00;55844.97;5133210;27;20630;-73
2022/03/06 01:24:49;;;;;;;14.07;13.30;;;;;;;-141.02;100.00;55844.97;5133201;27;20573;-73
2022/03/06 01:27:16;;;;;;;14.70;13.90;;;;;;;-141.02;100.00;55844.97;5133434;27;20245;-74
2022/03/06 01:29:45;;;;;;;15.80;14.87;;;;;;;-141.02;100.00;55844.97;5133438;27;20224;-73
2022/03/06 01:32:12;;;;;;;20.27;18.60;;;;;;;-141.02;100.00;55844.97;5133357;27;20199;-73
2022/03/06 01:34:39;;;;;;;15.40;14.53;;;;;;;-141.02;100.00;55844.97;5133080;27;20200;-72
2022/03/06 01:37:06;;;;;;;19.13;17.77;;;;;;;-141.02;100.00;55844.97;5133345;27;20587;-72
2022/03/06 01:39:33;;;;;;;34.80;32.03;;;;;;;-141.02;100.00;55844.97;5133238;27;20312;-72
2022/03/06 01:42:00;;;;;;;20.40;19.03;;;;;;;-141.02;100.00;55844.97;5133040;27;20249;-72
2022/03/06 01:44:27;;;;;;;15.03;14.23;;;;;;;-141.02;100.00;55844.97;5133311;27;20200;-72
2022/03/06 01:46:56;;;;;;;19.97;18.47;;;;;;;-141.02;100.00;55844.97;5132898;28;20249;-71
2022/03/06 01:49:23;;;;;;;20.63;18.90;;;;;;;-141.02;100.00;55844.97;5132920;27;20251;-73
2022/03/06 01:51:50;;;;;;;19.57;17.90;;;;;;;-141.02;100.00;55844.97;5133241;28;20233;-72
2022/03/06 01:54:17;;;;;;;16.40;15.37;;;;;;;-141.02;100.00;55844.97;5133157;28;20280;-73
2022/03/06 01:56:44;;;;;;;17.90;16.67;;;;;;;-141.02;100.00;55844.97;5132786;28;20193;-73
2022/03/06 01:59:11;;;;;;;18.00;16.37;;;;;;;-141.02;100.00;55844.97;5133144;27;20641;-72
2022/03/06 02:01:38;;;;;;;14.80;13.43;;;;;;;-141.02;100.00;55844.97;5136997;27;20662;-72
2022/03/06 02:04:07;;;;;;;14.30;13.30;;;;;;;-141.02;100.00;55844.97;5136967;27;20621;-72
2022/03/06 02:06:35;;;;;;;18.47;16.87;;;;;;;-141.02;100.00;55844.97;5137209;27;20192;-73
2022/03/06 02:09:02;;;;;;;19.50;17.60;;;;;;;-141.02;100.00;55844.97;5137159;27;20234;-72
2022/03/06 02:11:29;;;;;;;16.43;15.07;;;;;;;-141.02;100.00;55844.97;5136796;27;20196;-72
2022/03/06 02:13:57;;;;;;;16.50;14.87;;;;;;;-141.02;100.00;55844.97;5137113;27;20252;-72
2022/03/06 02:16:24;;;;;;;17.93;16.43;;;;;;;-141.02;100.00;55844.97;5137114;27;20320;-71
2022/03/06 02:18:51;;;;;;;18.87;17.23;;;;;;;-141.02;100.00;55844.97;5136894;27;20246;-73
2022/03/06 02:21:19;;;;;;;13.33;12.63;;;;;;;-141.02;100.00;55844.97;5136924;27;20642;-73
2022/03/06 02:23:47;;;;;;;17.93;16.57;;;;;;;-141.02;100.00;55844.97;5136808;27;20725;-71
2022/03/06 02:26:14;;;;;;;16.77;15.37;;;;;;;-141.02;100.00;55844.97;5136890;27;20275;-72
2022/03/06 02:28:43;;;;;;;20.13;18.67;;;;;;;-141.02;100.00;55844.97;5136863;27;20289;-73
2022/03/06 02:31:13;;;;;;;47.30;43.20;;;;;;;-141.02;100.00;55844.97;5136440;27;20192;-73
2022/03/06 02:33:40;;;;;;;23.30;21.43;;;;;;;-141.02;100.00;55844.97;5136424;27;20196;-73
2022/03/06 02:36:07;;;;;;;37.07;33.90;;;;;;;-141.02;100.00;55844.97;5136309;27;20574;-72
2022/03/06 02:38:35;;;;;;;47.50;43.80;;;;;;;-141.02;100.00;55844.97;5136131;27;20323;-73
2022/03/06 02:41:02;;;;;;;24.73;22.53;;;;;;;-141.02;100.00;55844.97;5136283;27;20678;-72
2022/03/06 02:43:29;;;;;;;22.20;20.27;;;;;;;-141.02;100.00;55844.97;5136718;27;20200;-73
2022/03/06 02:45:56;;;;;;;19.83;18.33;;;;;;;-141.02;100.00;55844.97;5136530;27;20227;-74
2022/03/06 02:48:24;;;;;;;19.50;17.80;;;;;;;-141.02;100.00;55844.97;5136450;27;20232;-72
2022/03/06 02:50:53;;;;;;;17.53;16.40;;;;;;;-141.02;100.00;55844.97;5136392;27;20208;-71
2022/03/06 02:53:22;;;;;;;13.50;12.57;;;;;;;-141.02;100.00;55844.97;5135952;27;20567;-72
2022/03/06 02:55:51;;;;;;;18.23;16.90;;;;;;;-141.02;100.00;55844.97;5136274;27;20643;-72
2022/03/06 02:58:19;;;;;;;19.57;18.07;;;;;;;-141.02;100.00;55844.97;5136174;27;20228;-73
2022/03/06 03:00:46;;;;;;;20.47;18.87;;;;;;;-141.02;100.00;55844.97;5135904;27;20192;-73
2022/03/06 03:03:13;;;;;;;16.83;15.80;;;;;;;-141.02;100.00;55844.97;5135875;27;20231;-73
2022/03/06 03:05:40;;;;;;;21.07;19.33;;;;;;;-141.02;100.00;55844.97;5136060;27;20246;-74
2022/03/06 03:08:07;;;;;;;17.93;16.53;;;;;;;-141.02;100.00;55844.97;5135749;27;20224;-73
2022/03/06 03:10:35;;;;;;;18.87;17.57;;;;;;;-141.02;100.00;55844.97;5135688;27;20670;-72
2022/03/06 03:13:03;;;;;;;18.53;17.40;;;;;;;-141.02;100.00;55844.97;5135092;27;20249;-73
2022/03/06 03:15:30;;;;;;;18.13;17.13;;;;;;;-141.02;100.00;55844.97;5135929;27;20280;-73
2022/03/06 03:17:57;;;;;;;16.00;15.27;;;;;;;-141.02;100.00;55844.97;5135748;27;20192;-73
2022/03/06 03:20:24;;;;;;;18.07;16.77;;;;;;;-141.02;100.00;55844.97;5135430;27;20721;-72
2022/03/06 03:22:51;;;;;;;16.73;15.90;;;;;;;-141.02;100.00;55844.97;5135680;27;20218;-73
2022/03/06 03:25:18;;;;;;;17.17;16.43;;;;;;;-141.02;100.00;55844.97;5135425;27;20243;-73
2022/03/06 03:27:45;;;;;;;18.53;17.40;;;;;;;-141.02;100.00;55844.97;5135356;27;20654;-73
2022/03/06 03:30:14;;;;;;;19.07;17.67;;;;;;;-141.02;100.00;55844.97;5135651;27;20192;-73
2022/03/06 03:32:41;;;;;;;16.90;15.87;;;;;;;-141.02;100.00;55844.97;5135597;27;20230;-71
2022/03/06 03:35:09;;;;;;;18.70;17.63;;;;;;;-141.02;100.00;55844.97;5135422;27;20192;-72
2022/03/06 03:37:37;;;;;;;19.00;17.57;;;;;;;-141.02;100.00;55844.97;5135209;27;20277;-72
2022/03/06 03:40:06;;;;;;;28.30;26.33;;;;;;;-141.02;100.00;55844.97;5135356;27;20283;-72
2022/03/06 03:42:33;;;;;;;12.43;11.73;;;;;;;-141.02;100.00;55844.97;5135379;27;20245;-72
2022/03/06 03:45:00;;;;;;;14.10;13.30;;;;;;;-141.02;100.00;55844.97;5135374;27;20258;-71
2022/03/06 03:47:28;;;;;;;13.13;12.43;;;;;;;-141.02;100.00;55844.97;5134954;27;20192;-71
2022/03/06 03:49:55;;;;;;;11.93;11.03;;;;;;;-141.02;100.00;55844.97;5134966;27;20720;-70
2022/03/06 03:52:22;;;;;;;14.67;13.47;;;;;;;-141.02;100.00;55844.97;5134828;27;20189;-71
2022/03/06 03:54:49;;;;;;;9.97;9.33;;;;;;;-141.02;100.00;55844.97;5135117;27;20193;-70
2022/03/06 03:57:16;;;;;;;9.07;7.97;;;;;;;-141.02;100.00;55844.97;5135102;27;20196;-70
2022/03/06 03:59:43;;;;;;;12.17;11.40;;;;;;;-141.02;100.00;55844.97;5134637;27;20327;-71
2022/03/06 04:02:10;;;;;;;7.23;5.73;;;;;;;-141.02;100.00;55844.97;5135010;27;20192;-71
2022/03/06 04:04:39;;;;;;;7.27;6.77;;;;;;;-141.02;100.00;55844.97;5135197;27;20288;-69
2022/03/06 04:07:06;;;;;;;6.83;6.30;;;;;;;-141.02;100.00;55844.97;5134549;27;20747;-70
2022/03/06 04:09:33;;;;;;;4.10;4.00;;;;;;;-141.02;100.00;55844.97;5134824;27;20197;-70
2022/03/06 04:12:00;;;;;;;6.37;5.97;;;;;;;-141.02;100.00;55844.97;5134804;27;20296;-70
2022/03/06 04:14:27;;;;;;;5.20;4.80;;;;;;;-141.02;100.00;55844.97;5134425;27;20196;-70
2022/03/06 04:16:54;;;;;;;8.13;7.60;;;;;;;-141.02;100.00;55844.97;5134725;27;20646;-71
2022/03/06 04:19:21;;;;;;;9.57;8.67;;;;;;;-141.02;100.00;55844.97;5134516;27;20671;-70
2022/03/06 04:21:49;;;;;;;8.37;7.67;;;;;;;-141.02;100.00;55844.97;5134316;27;20693;-70
2022/03/06 04:24:16;;;;;;;5.43;5.03;;;;;;;-141.02;100.00;55844.97;5134534;27;20196;-70
2022/03/06 04:26:43;;;;;;;7.57;7.07;;;;;;;-141.02;100.00;55844.97;5134530;27;20243;-70
2022/03/06 04:29:10;;;;;;;8.50;7.63;;;;;;;-141.02;100.00;55844.97;5134502;27;20196;-70
2022/03/06 04:31:37;;;;;;;4.87;4.47;;;;;;;-141.02;100.00;55844.97;5134198;27;20257;-70
2022/03/06 04:34:04;;;;;;;6.07;5.60;;;;;;;-141.02;100.00;55844.97;5134393;27;20200;-72
2022/03/06 04:36:31;;;;;;;4.90;4.70;;;;;;;-141.02;100.00;55844.97;5134704;27;20199;-70
2022/03/06 04:39:00;;;;;;;5.80;5.23;;;;;;;-141.02;100.00;55844.97;5133947;27;20185;-71
2022/03/06 04:41:27;;;;;;;4.20;4.00;;;;;;;-141.02;100.00;55844.97;5133907;27;20228;-71
2022/03/06 04:43:54;;;;;;;7.57;7.03;;;;;;;-141.02;100.00;55844.97;5133914;27;20192;-71
2022/03/06 04:46:21;;;;;;;3.13;3.13;;;;;;;-141.02;100.00;55844.97;5134036;27;20192;-71
2022/03/06 04:48:48;;;;;;;7.07;6.67;;;;;;;-141.02;100.00;55844.97;5133792;27;20196;-70
2022/03/06 04:51:16;;;;;;;10.07;9.20;;;;;;;-141.02;100.00;55844.97;5133729;27;20197;-69
2022/03/06 04:53:43;;;;;;;6.47;5.73;;;;;;;-141.02;100.00;55844.97;5133715;27;20188;-69
2022/03/06 04:56:12;;;;;;;8.90;8.20;;;;;;;-141.02;100.00;55844.97;5133635;27;20207;-70
2022/03/06 04:58:39;;;;;;;7.30;6.80;;;;;;;-141.02;100.00;55844.97;5133931;27;20243;-70
2022/03/06 05:01:06;;;;;;;6.73;6.20;;;;;;;-141.02;100.00;55844.97;5133512;27;20285;-70
2022/03/06 05:03:33;;;;;;;2.57;2.47;;;;;;;-141.02;100.00;55844.97;5133817;27;20680;-70
2022/03/06 05:06:00;;;;;;;5.93;5.50;;;;;;;-141.02;100.00;55844.97;5133789;27;20287;-70
2022/03/06 05:08:28;;;;;;;2.57;2.37;;;;;;;-141.02;100.00;55844.97;5133797;27;20276;-71
2022/03/06 05:10:55;;;;;;;5.93;5.47;;;;;;;-141.02;100.00;55844.97;5133445;27;20249;-70
2022/03/06 05:13:25;;;;;;;3.07;2.90;;;;;;;-141.02;100.00;55844.97;5133633;27;20224;-70
2022/03/06 05:15:52;;;;;;;4.50;4.20;;;;;;;-141.02;100.00;55844.97;5133298;27;20192;-69
2022/03/06 05:18:19;;;;;;;3.50;3.30;;;;;;;-141.02;100.00;55844.97;5133641;27;20244;-71
2022/03/06 05:20:46;;;;;;;4.07;3.70;;;;;;;-141.02;100.00;55844.97;5133486;27;20232;-71
2022/03/06 05:23:13;;;;;;;3.27;3.10;;;;;;;-141.02;100.00;55844.97;5133568;27;20230;-71
2022/03/06 05:25:40;;;;;;;1.53;1.53;;;;;;;-141.02;100.00;55844.97;5133787;27;20283;-70
2022/03/06 05:28:07;;;;;;;2.67;2.57;;;;;;;-141.02;100.00;55844.97;5133493;27;20579;-71
2022/03/06 05:30:36;;;;;;;2.50;2.37;;;;;;;-141.02;100.00;55844.97;5133184;27;20189;-71
2022/03/06 05:33:03;;;;;;;1.87;1.87;;;;;;;-141.02;100.00;55844.97;5133345;27;20265;-70
2022/03/06 05:35:30;;;;;;;2.17;2.13;;;;;;;-141.02;100.00;55844.97;5132982;27;20192;-71
2022/03/06 05:37:57;;;;;;;2.40;2.20;;;;;;;-141.02;100.00;55844.97;5133057;27;20267;-71
2022/03/06 05:40:24;;;;;;;1.83;1.80;;;;;;;-141.02;100.00;55844.97;5133224;27;20224;-71
2022/03/06 05:42:51;;;;;;;1.90;1.90;;;;;;;-141.02;100.00;55844.97;5133265;28;20196;-72
2022/03/06 05:45:18;;;;;;;2.70;1.87;;;;;;;-141.02;100.00;55844.97;5133129;28;20235;-71
2022/03/06 05:47:47;;;;;;;2.43;2.33;;;;;;;-141.02;100.00;55844.97;5133231;28;20226;-72
2022/03/06 05:50:14;;;;;;;2.67;2.57;;;;;;;-141.02;100.00;55844.97;5132820;28;20224;-72
2022/03/06 05:52:41;;;;;;;1.60;1.60;;;;;;;-141.02;100.00;55844.97;5132919;27;20204;-72
2022/03/06 05:55:09;;;;;;;1.30;1.20;;;;;;;-141.02;100.00;55844.97;5132880;28;20196;-72
2022/03/06 05:57:37;;;;;;;2.07;2.03;;;;;;;-141.02;100.00;55844.97;5132815;28;20199;-72
2022/03/06 06:00:08;;;;;;;1.10;1.10;;;;;;;-141.02;100.00;55844.97;5133902;28;20314;-72
2022/03/06 06:02:35;;;;;;;2.67;2.53;;;;;;;-141.02;100.00;55844.97;5132830;27;20188;-72
2022/03/06 06:05:05;;;;;;;1.83;1.73;;;;;;;-141.02;100.00;55844.97;5132748;28;20249;-72
2022/03/06 06:07:32;;;;;;;2.33;2.23;;;;;;;-141.02;100.00;55844.97;5132697;27;20197;-73
2022/03/06 06:09:59;;;;;;;1.40;1.40;;;;;;;-141.02;100.00;55844.97;5133917;27;20218;-73
2022/03/06 06:12:27;;;;;;;2.03;2.03;;;;;;;-141.02;100.00;55844.97;5133148;27;20192;-72
2022/03/06 06:14:54;;;;;;;1.90;1.90;;;;;;;-141.02;100.00;55844.97;5132759;28;20223;-73
2022/03/06 06:17:21;;;;;;;2.73;2.63;;;;;;;-141.02;100.00;55844.97;5133006;28;20196;-73
2022/03/06 06:19:48;;;;;;;2.33;2.33;;;;;;;-141.02;100.00;55844.97;5132564;28;20228;-71
2022/03/06 06:22:17;;;;;;;3.03;2.93;;;;;;;-141.02;100.00;55844.97;5132997;27;20249;-72
2022/03/06 06:24:44;;;;;;;3.63;3.53;;;;;;;-141.02;100.00;55844.97;5132896;28;20646;-72
2022/03/06 06:27:11;;;;;;;2.30;2.30;;;;;;;-141.02;100.00;55844.97;5132615;28;20672;-73
2022/03/06 06:29:38;;;;;;;3.77;3.63;;;;;;;-141.02;100.00;55844.97;5132873;28;20196;-72
2022/03/06 06:32:06;;;;;;;5.07;4.77;;;;;;;-141.02;100.00;55844.97;5132833;28;20621;-73
2022/03/06 06:34:33;;;;;;;2.97;2.97;;;;;;;-141.02;100.00;55844.97;5132871;27;20201;-73
2022/03/06 06:37:00;;;;;;;3.20;3.20;;;;;;;-141.02;100.00;55844.97;5132485;28;20232;-74
2022/03/06 06:39:28;;;;;;;3.80;3.60;;;;;;;-141.02;100.00;55844.97;5132461;27;20691;-73
2022/03/06 06:41:55;;;;;;;5.10;4.90;;;;;;;-141.02;100.00;55844.97;5132731;28;20295;-72
2022/03/06 06:44:22;;;;;;;3.90;3.80;;;;;;;-141.02;100.00;55844.97;5132435;28;20232;-72
2022/03/06 06:46:49;;;;;;;4.23;4.13;;;;;;;-141.02;100.00;55844.97;5133672;27;20189;-73
2022/03/06 06:49:16;;;;;;;3.53;3.43;;;;;;;-141.02;100.00;55844.97;5136071;27;20674;-74
2022/03/06 06:51:44;;;;;;;3.50;3.40;;;;;;;-141.02;100.00;55844.97;5136420;27;20275;-74
2022/03/06 06:54:13;;;;;;;4.50;4.40;;;;;;;-141.02;100.00;55844.97;5136045;27;20192;-74
2022/03/06 06:56:41;;;;;;;5.20;5.00;;;;;;;-141.02;100.00;55844.97;5135981;27;20228;-74
2022/03/06 06:59:09;;;;;;;5.37;5.07;;;;;;;-141.02;100.00;55844.97;5135943;27;20192;-75
2022/03/06 07:01:36;;;;;;;5.97;5.63;;;;;;;-141.02;100.00;55844.97;5137030;27;20231;-72
2022/03/06 07:04:03;;;;;;;5.67;5.37;;;;;;;-141.02;100.00;55844.97;5135890;27;20230;-72
2022/03/06 07:06:30;;;;;;;6.97;6.67;;;;;;;-141.02;100.00;55844.97;5135817;27;20196;-74
2022/03/06 07:08:57;;;;;;;5.30;5.20;;;;;;;-141.02;100.00;55844.97;5135856;27;20196;-74
2022/03/06 07:11:24;;;;;;;5.30;5.20;;;;;;;-141.02;100.00;55844.97;5135823;27;20228;-75
2022/03/06 07:13:53;;;;;;;6.90;6.33;;;;;;;-141.02;100.00;55844.97;5136350;27;20275;-71
2022/03/06 07:16:20;;;;;;;6.53;6.30;;;;;;;-141.02;100.00;55844.97;5136032;27;20188;-72
2022/03/06 07:18:47;;;;;;;8.10;7.70;;;;;;;-141.02;100.00;55844.97;5135899;27;20274;-72
2022/03/06 07:21:14;;;;;;;7.33;6.83;;;;;;;-141.02;100.00;55844.97;5135700;27;20227;-73
2022/03/06 07:23:41;;;;;;;7.00;6.70;;;;;;;-141.02;100.00;55844.97;5135534;27;20242;-72
2022/03/06 07:26:08;;;;;;;7.77;7.37;;;;;;;-141.02;100.00;55844.97;5135839;27;20196;-74
2022/03/06 07:28:35;;;;;;;8.00;7.70;;;;;;;-141.02;100.00;55844.97;5135948;27;20233;-74
2022/03/06 07:31:03;;;;;;;6.93;6.67;;;;;;;-141.02;100.00;55844.97;5135607;27;20271;-74
2022/03/06 07:33:30;;;;;;;9.20;8.60;;;;;;;-141.02;100.00;55844.97;5135578;27;20666;-72
2022/03/06 07:35:57;;;;;;;9.37;8.77;;;;;;;-141.02;100.00;55844.97;5135253;27;20196;-73
2022/03/06 07:38:24;;;;;;;9.10;8.70;;;;;;;-141.02;100.00;55844.97;5135379;27;20760;-75
2022/03/06 07:40:51;;;;;;;8.50;8.10;;;;;;;-141.02;100.00;55844.97;5135445;27;20219;-76
2022/03/06 07:43:18;;;;;;;9.30;8.73;;;;;;;-141.02;100.00;55844.97;5135409;27;20218;-75
2022/03/06 07:45:45;;;;;;;9.13;8.77;;;;;;;-141.02;100.00;55844.97;5135345;27;20249;-75
2022/03/06 07:48:14;;;;;;;11.07;10.50;;;;;;;-141.02;100.00;55844.97;5135263;27;20275;-75
2022/03/06 07:50:41;;;;;;;11.23;10.67;;;;;;;-141.02;100.00;55844.97;5135265;27;20197;-74
2022/03/06 07:53:08;;;;;;;10.03;9.67;;;;;;;-141.02;100.00;55844.97;5135297;27;20256;-75
2022/03/06 07:55:35;;;;;;;9.73;9.43;;;;;;;-141.02;100.00;55844.97;5134885;27;20192;-75
2022/03/06 07:58:02;;;;;;;10.70;10.20;;;;;;;-141.02;100.00;55844.97;5134952;27;20283;-76
2022/03/06 08:00:29;;;;;;;9.47;9.07;;;;;;;-141.02;100.00;55844.97;5135078;27;20273;-75
2022/03/06 08:02:56;;;;;;;10.63;10.23;;;;;;;-141.02;100.00;55844.97;5134821;27;20205;-75
2022/03/06 08:05:25;;;;;;;13.13;12.43;;;;;;;-141.02;100.00;55844.97;5134874;27;20198;-77
2022/03/06 08:07:52;;;;;;;11.67;11.17;;;;;;;-141.02;100.00;55844.97;5135077;27;20275;-76
2022/03/06 08:10:19;;;;;;;10.90;10.17;;;;;;;-141.02;100.00;55844.97;5135027;27;20196;-76
2022/03/06 08:12:48;;;;;;;13.43;12.63;;;;;;;-141.02;100.00;55844.97;5134968;27;20192;-76
2022/03/06 08:15:16;;;;;;;11.83;11.17;;;;;;;-141.02;100.00;55844.97;5134623;27;20228;-74
2022/03/06 08:17:43;;;;;;;11.13;10.63;;;;;;;-141.02;100.00;55844.97;5134795;27;20242;-76
2022/03/06 08:20:11;;;;;;;12.43;11.63;;;;;;;-141.02;100.00;55844.97;5135377;27;20227;-77
2022/03/06 08:22:39;;;;;;;12.47;11.60;;;;;;;-141.02;100.00;55844.97;5134793;27;20197;-78
2022/03/06 08:25:08;;;;;;;11.40;10.90;;;;;;;-141.02;100.00;55844.97;5134864;27;20231;-77
2022/03/06 08:27:35;;;;;;;11.97;11.47;;;;;;;-141.02;100.00;55844.97;5135022;27;20200;-76
2022/03/06 08:30:04;;;;;;;13.00;12.30;;;;;;;-141.02;100.00;55844.97;5134498;27;20224;-78
2022/03/06 08:32:31;;;;;;;12.50;11.83;;;;;;;-141.02;100.00;55844.97;5134439;27;20253;-75
2022/03/06 08:34:58;;;;;;;10.87;10.47;;;;;;;-141.02;100.00;55844.97;5134102;27;20193;-74
2022/03/06 08:37:25;;;;;;;12.67;12.07;;;;;;;-141.02;100.00;55844.97;5134017;27;20690;-75
2022/03/06 08:39:54;;;;;;;12.17;11.67;;;;;;;-141.02;100.00;55844.97;5134254;27;20234;-76
2022/03/06 08:42:21;;;;;;;13.27;12.60;;;;;;;-141.02;100.00;55844.97;5134495;27;20224;-77
2022/03/06 08:44:48;;;;;;;11.20;10.80;;;;;;;-141.02;100.00;55844.97;5134694;27;20246;-77
2022/03/06 08:47:15;;;;;;;14.43;13.60;;;;;;;-141.02;100.00;55844.97;5134331;27;20188;-77
2022/03/06 08:49:42;;;;;;;14.77;13.70;;;;;;;-141.02;100.00;55844.97;5134139;27;20662;-75
2022/03/06 08:52:10;;;;;;;12.77;12.27;;;;;;;-141.02;100.00;55844.97;5134591;27;20227;-77
2022/03/06 08:54:37;;;;;;;13.93;13.17;;;;;;;-141.02;100.00;55844.97;5134385;27;20197;-77
2022/03/06 08:57:06;;;;;;;14.03;13.23;;;;;;;-141.02;100.00;55844.97;5134401;27;20249;-77
2022/03/06 08:59:33;;;;;;;12.10;11.60;;;;;;;-141.02;100.00;55844.97;5133946;27;20205;-78
2022/03/06 09:02:00;;;;;;;13.67;12.80;;;;;;;-141.02;100.00;55844.97;5133799;27;20273;-75
2022/03/06 09:04:28;;;;;;;12.93;12.33;;;;;;;-141.02;100.00;55844.97;5134073;27;20196;-76
2022/03/06 09:06:55;;;;;;;14.50;13.43;;;;;;;-141.02;100.00;55844.97;5134354;27;20287;-75
2022/03/06 09:09:22;;;;;;;15.23;14.53;;;;;;;-141.02;100.00;55844.97;5133862;27;20275;-75
2022/03/06 09:11:49;;;;;;;17.20;16.00;;;;;;;-141.02;100.00;55844.97;5134065;27;20287;-75
2022/03/06 09:14:18;;;;;;;17.83;16.50;;;;;;;-141.02;100.00;55844.97;5134451;27;20623;-76
2022/03/06 09:16:44;;;;;;;15.33;14.40;;;;;;;-141.02;100.00;55844.97;5134034;27;20685;-74
2022/03/06 09:19:12;;;;;;;16.10;15.27;;;;;;;-141.02;100.00;55844.97;5134984;27;20243;-74
2022/03/06 09:21:39;;;;;;;16.07;15.37;;;;;;;-141.02;100.00;55844.97;5134770;27;20292;-76
2022/03/06 09:24:08;;;;;;;16.80;16.03;;;;;;;-141.02;100.00;55844.97;5134024;27;20275;-76
2022/03/06 09:26:35;;;;;;;16.83;16.03;;;;;;;-141.02;100.00;55844.97;5133681;27;20192;-76
2022/03/06 09:29:03;;;;;;;21.33;19.73;;;;;;;-141.02;100.00;55844.97;5133588;27;20196;-72
2022/03/06 09:31:31;;;;;;;19.47;18.43;;;;;;;-141.02;100.00;55844.97;5133886;27;20196;-75
2022/03/06 09:33:58;;;;;;;16.43;15.63;;;;;;;-141.02;100.00;55844.97;5134040;27;20188;-76
2022/03/06 09:36:25;;;;;;;19.23;18.03;;;;;;;-141.02;100.00;55844.97;5133742;27;20196;-76
2022/03/06 09:38:52;;;;;;;16.90;16.00;;;;;;;-141.02;100.00;55844.97;5134040;27;20231;-76
2022/03/06 09:41:27;;;;;;;20.10;18.83;;;;;;;-141.02;100.00;55844.97;5133656;27;20276;-76
2022/03/06 09:43:55;;;;;;;17.40;16.50;;;;;;;-141.02;100.00;55844.97;5133961;27;20250;-77
2022/03/06 09:46:23;;;;;;;18.60;17.50;;;;;;;-141.02;100.00;55844.97;5133471;27;20253;-76
2022/03/06 09:48:52;;;;;;;17.30;16.40;;;;;;;-141.02;100.00;55844.97;5134327;27;20189;-77
2022/03/06 09:51:19;;;;;;;17.70;16.77;;;;;;;-141.02;100.00;55844.97;5133527;27;20193;-76
2022/03/06 09:53:46;;;;;;;17.00;16.20;;;;;;;-141.02;100.00;55844.97;5133115;27;20622;-76
2022/03/06 09:56:13;;;;;;;17.00;16.20;;;;;;;-141.02;100.00;55844.97;5133496;28;20246;-75
2022/03/06 09:58:40;;;;;;;17.13;16.23;;;;;;;-141.02;100.00;55844.97;5132997;28;20193;-77
2022/03/06 10:01:07;;;;;;;18.10;17.10;;;;;;;-141.02;100.00;55844.97;5132982;27;20220;-77
2022/03/06 10:03:36;;;;;;;18.17;17.07;;;;;;;-141.02;100.00;55844.97;5132935;28;20252;-76
2022/03/06 10:06:07;;;;;;;17.60;16.70;;;;;;;-141.02;100.00;55844.97;5133306;28;20207;-77
2022/03/06 10:08:35;;;;;;;17.10;16.30;;;;;;;-141.02;100.00;55844.97;5133225;28;20184;-76
2022/03/06 10:11:05;;;;;;;17.07;16.27;;;;;;;-141.02;100.00;55844.97;5133420;28;20188;-76
2022/03/06 10:13:33;;;;;;;16.30;15.60;;;;;;;-141.02;100.00;55844.97;5132800;28;20218;-76
2022/03/06 10:16:12;;;;;;;15.87;15.17;;;;;;;-141.02;100.00;55844.97;5132787;27;20727;-76
2022/03/06 10:18:42;;;;;;;16.60;15.80;;;;;;;-141.02;100.00;55844.97;5132797;27;20638;-75
2022/03/06 10:21:21;;;;;;;15.77;15.07;;;;;;;-141.02;100.00;55844.97;5134473;27;20232;-76
2022/03/06 10:23:50;;;;;;;17.37;16.47;;;;;;;-141.02;100.00;55844.97;5136940;27;20212;-74
2022/03/06 10:26:19;;;;;;;19.00;17.90;;;;;;;-141.02;100.00;55844.97;5136948;27;20188;-75
2022/03/06 10:28:48;;;;;;;16.37;15.57;;;;;;;-141.02;100.00;55844.97;5136865;27;20197;-75
2022/03/06 10:31:17;;;;;;;18.10;17.00;;;;;;;-141.02;100.00;55844.97;5136599;27;20693;-76
2022/03/06 10:33:57;;;;;;;16.40;15.60;;;;;;;-141.02;100.00;55844.97;5137134;27;20192;-74
2022/03/06 10:36:33;;;;;;;18.00;17.10;;;;;;;-141.02;100.00;55844.97;5136576;27;20271;-74
2022/03/06 10:39:09;;;;;;;18.17;17.17;;;;;;;-141.02;100.00;55844.97;5136688;27;20187;-75
2022/03/06 10:41:39;;;;;;;63.60;58.37;;;;;;;-141.02;100.00;55844.97;5136619;27;20215;-75
2022/03/06 10:44:09;;;;;;;14.80;14.00;;;;;;;-141.02;100.00;55844.97;5136216;27;20200;-76
2022/03/06 10:46:37;;;;;;;16.67;15.67;;;;;;;-141.02;100.00;55844.97;5136558;27;20284;-74
2022/03/06 10:49:12;;;;;;;15.60;14.90;;;;;;;-141.02;100.00;55844.97;5136441;27;20557;-77
2022/03/06 10:51:43;;;;;;;16.40;15.60;;;;;;;-141.02;100.00;55844.97;5136177;27;20189;-75
2022/03/06 10:54:13;;;;;;;17.67;16.47;;;;;;;-141.02;100.00;55844.97;5136094;27;20573;-75
2022/03/06 10:56:40;;;;;;;16.03;15.23;;;;;;;-141.02;100.00;55844.97;5136041;27;20199;-75
2022/03/06 10:59:08;;;;;;;14.07;13.47;;;;;;;-141.02;100.00;55844.97;5136298;27;20192;-75
2022/03/06 11:01:36;;;;;;;15.50;14.80;;;;;;;-141.02;100.00;55844.97;5135871;27;20288;-75